Claremont, California
Current Conditions -  °F | °C
As of 6:53 PM on Thursday 27 Nov 2014 (Local Time) from KONT Reporting Station
Few Clouds Few Clouds  
Wind Chill: 70°   Ceiling: Unl
Heat Index: 70°   Visibility: 10mi
Dew Point: 26°   Wind: 0mph
Humidity: 19%   Direction: NA
Pressure: 30.04"   Gusts: NA
Location:  34.1°N, 117.71°W
Report Text: KONT 280253Z 00000KT 10SM FEW250 21/M03 A3004 RMK AO2 SLP165 T02111033 53006
Loading
Personal Weather Stations






























Interactive Weather Map New forecast layout! Learn more

10-Day Weather Forecast

Advertisements
Track Severe Weather on mobile